Details for UPS at KONT




Go Back


Latest METAR
Local Time

KONT 241353Z VRB03KT 10SM CLR 01/M07 A3031 RMK AO2 SLP270 T00061072

24/02/2018, 05:56:28

Description
Results
UPS Logo
Number of Pilots based at KONT
0 Pilots Based here
Number of UPS Flights Departed from KONT
0 Flights Departed
Number of UPS Flights Arrived at KONT
0 Flights Arrived
Number of UPS Schedules Departing from KONT
189 Schedules
Number of UPS Schedules Arriving at KONT
206 Schedules
Number of UPS Schedules Departing from KONT availible today
5 Schedules Today
Number of UPS Schedules Arriving at KONT availible today
7 Schedules Today
Average Landing Rate at KONT
0 fpm
UPS Average Landing Rate at KONT
0 fpm
Total Fuel Purchased at KONT by UPS
0.00 kgs / 0.00 lbs

Pilots Based at KONT


Pilot ID
Pilot Name
Pilot Rank
No. of Flights
No. of Flying Hours
There are no pilots assigned to this hub!   Will you be the first?
Content